createdAt,value
2018-10-21T00:00:49.554Z,0.00
2018-10-21T00:01:49.533Z,0.00
2018-10-21T00:02:49.520Z,0.00
2018-10-21T00:03:49.535Z,0.00
2018-10-21T00:04:49.503Z,0.00
2018-10-21T00:05:49.493Z,0.00
2018-10-21T00:06:49.478Z,0.00
2018-10-21T00:07:49.473Z,0.00
2018-10-21T00:08:49.491Z,0.00
2018-10-21T00:09:49.447Z,0.00
2018-10-21T00:10:49.438Z,0.00
2018-10-21T00:11:49.424Z,0.00
2018-10-21T00:12:49.417Z,0.00
2018-10-21T00:13:49.399Z,0.00
2018-10-21T00:14:49.420Z,0.00
2018-10-21T00:15:49.379Z,0.00
2018-10-21T00:16:49.368Z,0.00
2018-10-21T00:17:49.370Z,0.00
2018-10-21T00:18:49.345Z,0.00
2018-10-21T00:19:49.332Z,0.00
2018-10-21T00:20:49.342Z,0.00
2018-10-21T00:21:49.316Z,0.00
2018-10-21T00:22:49.308Z,0.00
2018-10-21T00:23:49.319Z,0.00
2018-10-21T00:24:49.291Z,0.00
2018-10-21T00:25:49.304Z,0.00
2018-10-21T00:26:49.257Z,0.00
2018-10-21T00:27:49.257Z,0.00
2018-10-21T00:28:49.236Z,0.00
2018-10-21T00:29:49.230Z,0.00
2018-10-21T00:30:49.218Z,0.00
2018-10-21T00:31:49.230Z,0.00
2018-10-21T00:32:49.192Z,0.00
2018-10-21T00:33:49.193Z,0.00
2018-10-21T00:34:49.176Z,0.00
2018-10-21T00:35:49.172Z,0.00
2018-10-21T00:36:49.177Z,0.00
2018-10-21T00:37:49.138Z,0.00
2018-10-21T00:38:49.126Z,0.00
2018-10-21T00:39:49.115Z,0.00
2018-10-21T00:40:49.113Z,0.00
2018-10-21T00:41:49.121Z,0.00
2018-10-21T00:42:49.088Z,0.00
2018-10-21T00:43:49.070Z,0.00
2018-10-21T00:44:49.124Z,0.00
2018-10-21T00:45:49.047Z,0.00
2018-10-21T00:46:49.058Z,0.00
2018-10-21T00:47:49.037Z,0.00
2018-10-21T00:48:49.022Z,0.00
2018-10-21T00:49:49.010Z,0.00
2018-10-21T00:50:48.994Z,0.00
2018-10-21T00:51:49.007Z,0.00
2018-10-21T00:52:48.971Z,0.00
2018-10-21T00:53:48.961Z,0.00
2018-10-21T00:54:48.953Z,0.00
2018-10-21T00:55:48.952Z,0.00
2018-10-21T00:56:48.975Z,0.00
2018-10-21T00:57:48.916Z,0.00
2018-10-21T00:58:48.905Z,0.00
2018-10-21T00:59:48.897Z,0.00
2018-10-21T01:00:48.885Z,0.00
2018-10-21T01:01:48.869Z,0.00
2018-10-21T01:02:48.895Z,0.00
2018-10-21T01:03:48.867Z,0.00
2018-10-21T01:04:48.846Z,0.00
2018-10-21T01:05:48.831Z,0.00
2018-10-21T01:06:48.820Z,0.00
2018-10-21T01:07:48.816Z,0.00
2018-10-21T01:08:48.829Z,0.00
2018-10-21T01:09:48.803Z,0.00
2018-10-21T01:10:48.776Z,0.00
2018-10-21T01:11:48.764Z,0.00
2018-10-21T01:12:48.751Z,0.00
2018-10-21T01:13:48.764Z,0.00
2018-10-21T01:14:48.729Z,0.00
2018-10-21T01:15:48.726Z,0.00
2018-10-21T01:16:48.708Z,0.00
2018-10-21T01:17:48.702Z,0.00
2018-10-21T01:18:48.688Z,0.00
2018-10-21T01:19:48.695Z,0.00
2018-10-21T01:20:48.664Z,0.00
2018-10-21T01:21:48.652Z,0.00
2018-10-21T01:22:48.641Z,0.00
2018-10-21T01:23:48.651Z,0.00
2018-10-21T01:24:48.650Z,0.00
2018-10-21T01:25:48.605Z,0.00
2018-10-21T01:26:48.597Z,0.00
2018-10-21T01:27:48.602Z,0.00
2018-10-21T01:28:48.576Z,0.00
2018-10-21T01:29:48.599Z,0.00
2018-10-21T01:30:48.552Z,0.00
2018-10-21T01:31:48.540Z,0.00
2018-10-21T01:32:48.532Z,0.00
2018-10-21T01:33:48.523Z,0.00
2018-10-21T01:34:48.510Z,0.00
2018-10-21T01:35:48.525Z,0.00
2018-10-21T01:36:48.641Z,0.00
2018-10-21T01:37:48.534Z,0.00
2018-10-21T01:38:48.471Z,0.00
2018-10-21T01:39:48.455Z,0.00
2018-10-21T01:40:48.482Z,0.00
2018-10-21T01:41:48.429Z,0.00
2018-10-21T01:42:48.422Z,0.00
2018-10-21T01:43:48.500Z,0.00
2018-10-21T01:44:48.396Z,0.00
2018-10-21T01:45:48.421Z,0.00
2018-10-21T01:46:48.377Z,0.00
2018-10-21T01:47:48.368Z,0.00
2018-10-21T01:48:48.354Z,0.00
2018-10-21T01:49:48.352Z,0.00
2018-10-21T01:50:48.337Z,0.00
2018-10-21T01:51:48.352Z,0.00
2018-10-21T01:52:48.311Z,0.00
2018-10-21T01:53:48.299Z,0.00
2018-10-21T01:54:48.289Z,0.00
2018-10-21T01:55:48.275Z,0.00
2018-10-21T01:56:48.288Z,0.00
2018-10-21T01:57:48.256Z,0.00
2018-10-21T01:58:48.248Z,0.00
2018-10-21T01:59:48.264Z,0.00
2018-10-21T02:00:48.224Z,0.00
2018-10-21T02:01:48.243Z,0.00
2018-10-21T02:02:48.202Z,0.00
2018-10-21T02:03:48.187Z,0.00
2018-10-21T02:04:48.174Z,0.00
2018-10-21T02:05:48.167Z,0.00
2018-10-21T02:06:48.189Z,0.00
2018-10-21T02:07:48.198Z,0.00
2018-10-21T02:08:48.136Z,0.00
2018-10-21T02:09:48.124Z,0.00
2018-10-21T02:10:48.112Z,0.00
2018-10-21T02:11:48.100Z,0.00
2018-10-21T02:12:48.119Z,0.00
2018-10-21T02:13:48.079Z,0.00
2018-10-21T02:14:48.075Z,0.00
2018-10-21T02:15:48.058Z,0.00
2018-10-21T02:16:48.049Z,0.00
2018-10-21T02:17:48.040Z,0.00
2018-10-21T02:18:48.056Z,0.00
2018-10-21T02:19:48.026Z,0.00
2018-10-21T02:20:48.001Z,0.00
2018-10-21T02:21:47.993Z,0.00
2018-10-21T02:22:47.981Z,0.00
2018-10-21T02:23:47.978Z,0.00
2018-10-21T02:24:47.988Z,0.00
2018-10-21T02:25:47.953Z,0.00
2018-10-21T02:26:47.992Z,0.00
2018-10-21T02:27:47.928Z,0.00
2018-10-21T02:28:47.925Z,0.00
2018-10-21T02:29:47.924Z,0.00
2018-10-21T02:30:47.890Z,0.00
2018-10-21T02:31:47.900Z,0.00
2018-10-21T02:32:47.874Z,0.00
2018-10-21T02:33:47.874Z,0.00
2018-10-21T02:34:47.861Z,0.00
2018-10-21T02:35:47.866Z,0.00
2018-10-21T02:36:47.835Z,0.00
2018-10-21T02:37:47.817Z,0.00
2018-10-21T02:38:47.802Z,0.00
2018-10-21T02:39:47.878Z,0.00
2018-10-21T02:40:47.791Z,0.00
2018-10-21T02:41:47.785Z,0.00
2018-10-21T02:42:47.764Z,0.00
2018-10-21T02:43:47.751Z,0.00
2018-10-21T02:44:47.734Z,0.00
2018-10-21T02:45:47.755Z,0.00
2018-10-21T02:46:47.734Z,0.00
2018-10-21T02:47:47.712Z,0.00
2018-10-21T02:48:47.698Z,0.00
2018-10-21T02:49:47.688Z,0.00
2018-10-21T02:50:47.711Z,0.00
2018-10-21T02:51:47.666Z,0.00
2018-10-21T02:52:47.650Z,0.00
2018-10-21T02:53:47.643Z,0.00
2018-10-21T02:54:47.626Z,0.00
2018-10-21T02:55:47.617Z,0.00
2018-10-21T02:56:47.629Z,0.00
2018-10-21T02:57:47.596Z,0.00
2018-10-21T02:58:47.583Z,0.00
2018-10-21T02:59:47.575Z,0.00
2018-10-21T03:00:47.575Z,0.00
2018-10-21T03:01:47.570Z,0.00
2018-10-21T03:02:47.541Z,0.00
2018-10-21T03:03:47.545Z,0.00
2018-10-21T03:04:47.524Z,0.00
2018-10-21T03:05:47.508Z,0.00
2018-10-21T03:06:47.532Z,0.00
2018-10-21T03:07:47.485Z,0.00
2018-10-21T03:08:47.477Z,0.00
2018-10-21T03:09:47.459Z,0.00
2018-10-21T03:10:47.455Z,0.00
2018-10-21T03:11:47.448Z,0.00
2018-10-21T03:12:47.453Z,0.00
2018-10-21T03:13:47.427Z,0.00
2018-10-21T03:14:47.410Z,0.00
2018-10-21T03:15:47.404Z,0.00
2018-10-21T03:16:47.387Z,0.00
2018-10-21T03:17:47.416Z,0.00
2018-10-21T03:18:47.363Z,0.00
2018-10-21T03:19:47.416Z,0.00
2018-10-21T03:20:47.347Z,0.00
2018-10-21T03:21:47.336Z,0.00
2018-10-21T03:22:47.344Z,0.00
2018-10-21T03:23:47.310Z,0.00
2018-10-21T03:24:47.301Z,0.00
2018-10-21T03:25:47.291Z,0.00
2018-10-21T03:26:47.292Z,0.00
2018-10-21T03:27:47.291Z,0.00
2018-10-21T03:28:47.256Z,0.00
2018-10-21T03:29:47.249Z,0.00
2018-10-21T03:30:47.240Z,0.00
2018-10-21T03:31:47.233Z,0.00
2018-10-21T03:32:47.234Z,0.00
2018-10-21T03:33:47.365Z,0.00
2018-10-21T03:34:47.187Z,0.00
2018-10-21T03:35:47.247Z,0.00
2018-10-21T03:36:47.171Z,0.00
2018-10-21T03:37:47.168Z,0.00
2018-10-21T03:38:47.179Z,0.00
2018-10-21T03:39:47.141Z,0.00
2018-10-21T03:40:47.135Z,0.00
2018-10-21T03:41:47.119Z,0.00
2018-10-21T03:42:47.103Z,0.00
2018-10-21T03:43:47.115Z,0.00
2018-10-21T03:44:47.078Z,0.00
2018-10-21T03:45:47.071Z,0.00
2018-10-21T03:46:47.058Z,0.00
2018-10-21T03:47:47.050Z,0.00
2018-10-21T03:48:47.072Z,0.00
2018-10-21T03:49:47.026Z,0.00
2018-10-21T03:50:47.015Z,0.00
2018-10-21T03:51:47.007Z,0.00
2018-10-21T03:52:47.002Z,0.00
2018-10-21T03:53:47.021Z,0.00
2018-10-21T03:54:46.977Z,0.00
2018-10-21T03:55:46.965Z,0.00
2018-10-21T03:56:46.964Z,0.00
2018-10-21T03:57:46.943Z,0.00
2018-10-21T03:58:46.932Z,0.00
2018-10-21T03:59:46.999Z,0.00
2018-10-21T04:00:46.902Z,0.00
2018-10-21T04:01:46.895Z,0.00
2018-10-21T04:02:46.907Z,0.00
2018-10-21T04:03:46.871Z,0.00
2018-10-21T04:04:46.891Z,0.00
2018-10-21T04:05:46.855Z,0.00
2018-10-21T04:06:46.840Z,0.00
2018-10-21T04:07:46.829Z,0.00
2018-10-21T04:08:46.822Z,0.00
2018-10-21T04:09:46.840Z,0.00
2018-10-21T04:10:46.798Z,0.00
2018-10-21T04:11:46.781Z,0.00
2018-10-21T04:12:46.771Z,0.00
2018-10-21T04:13:46.762Z,0.00
2018-10-21T04:14:46.749Z,0.00
2018-10-21T04:15:46.763Z,0.00
2018-10-21T04:16:46.729Z,0.00
2018-10-21T04:17:46.720Z,0.00
2018-10-21T04:18:46.803Z,0.00
2018-10-21T04:19:46.697Z,0.00
2018-10-21T04:20:46.709Z,0.00
2018-10-21T04:21:46.676Z,0.00
2018-10-21T04:22:46.671Z,0.00
2018-10-21T04:23:46.649Z,0.00
2018-10-21T04:24:46.640Z,0.00
2018-10-21T04:25:46.657Z,0.00
2018-10-21T04:26:46.629Z,0.00
2018-10-21T04:27:46.614Z,0.00
2018-10-21T04:28:46.593Z,0.00
2018-10-21T04:29:46.587Z,0.00
2018-10-21T04:30:46.597Z,0.00
2018-10-21T04:31:46.568Z,0.00
2018-10-21T04:32:46.552Z,0.00
2018-10-21T04:33:46.541Z,0.00
2018-10-21T04:34:46.535Z,0.00
2018-10-21T04:35:46.542Z,0.00
2018-10-21T04:36:46.510Z,0.00
2018-10-21T04:37:46.502Z,0.00
2018-10-21T04:38:46.488Z,0.00
2018-10-21T04:39:46.478Z,0.00
2018-10-21T04:40:46.466Z,0.00
2018-10-21T04:41:46.482Z,0.00
2018-10-21T04:42:46.464Z,0.00
2018-10-21T04:43:46.433Z,0.00
2018-10-21T04:44:46.423Z,0.00
2018-10-21T04:45:46.422Z,0.00
2018-10-21T04:46:46.512Z,0.00
2018-10-21T04:47:46.386Z,0.00
2018-10-21T04:48:46.387Z,0.00
2018-10-21T04:49:46.368Z,0.00
2018-10-21T04:50:46.375Z,0.00
2018-10-21T04:51:46.374Z,0.00
2018-10-21T04:52:46.338Z,0.00
2018-10-21T04:53:46.321Z,0.00
2018-10-21T04:54:46.314Z,0.00
2018-10-21T04:55:46.317Z,0.00
2018-10-21T04:56:46.291Z,0.00
2018-10-21T04:57:46.303Z,0.00
2018-10-21T04:58:46.278Z,0.00
2018-10-21T04:59:46.265Z,0.00
2018-10-21T05:00:46.330Z,0.00
2018-10-21T05:01:46.268Z,0.00
2018-10-21T05:02:46.258Z,0.00
2018-10-21T05:03:46.236Z,0.00
2018-10-21T05:04:46.208Z,0.00
2018-10-21T05:05:46.193Z,0.00
2018-10-21T05:06:46.182Z,0.00
2018-10-21T05:07:46.168Z,0.00
2018-10-21T05:08:46.186Z,0.00
2018-10-21T05:09:46.149Z,0.00
2018-10-21T05:10:46.134Z,0.00
2018-10-21T05:11:46.121Z,0.00
2018-10-21T05:12:46.123Z,0.00
2018-10-21T05:13:46.115Z,0.00
2018-10-21T05:14:46.128Z,0.00
2018-10-21T05:15:46.081Z,0.00
2018-10-21T05:16:46.081Z,0.00
2018-10-21T05:17:46.060Z,0.00
2018-10-21T05:18:46.049Z,0.00
2018-10-21T05:19:46.043Z,0.00
2018-10-21T05:20:46.056Z,0.00
2018-10-21T05:21:46.021Z,0.00
2018-10-21T05:22:46.006Z,0.00
2018-10-21T05:23:46.051Z,0.00
2018-10-21T05:24:45.987Z,0.00
2018-10-21T05:25:45.993Z,0.00
2018-10-21T05:26:45.992Z,0.00
2018-10-21T05:27:45.953Z,0.00
2018-10-21T05:28:45.935Z,0.00
2018-10-21T05:29:45.943Z,0.00
2018-10-21T05:30:45.919Z,0.00
2018-10-21T05:31:45.929Z,0.00
2018-10-21T05:32:45.901Z,0.00
2018-10-21T05:33:45.885Z,0.00
2018-10-21T05:34:45.875Z,0.00
2018-10-21T05:35:45.864Z,0.00
2018-10-21T05:36:45.876Z,0.00
2018-10-21T05:37:45.852Z,0.00
2018-10-21T05:38:45.826Z,0.00
2018-10-21T05:39:45.821Z,4.00
2018-10-21T05:40:45.809Z,4.00
2018-10-21T05:41:45.856Z,0.00
2018-10-21T05:42:45.788Z,0.00
2018-10-21T05:43:45.777Z,4.00
2018-10-21T05:44:45.767Z,0.00
2018-10-21T05:45:45.755Z,4.00
2018-10-21T05:46:45.807Z,8.00
2018-10-21T05:47:45.761Z,4.00
2018-10-21T05:48:45.733Z,4.00
2018-10-21T05:49:45.712Z,8.00
2018-10-21T05:50:45.703Z,12.00
2018-10-21T05:51:45.710Z,12.00
2018-10-21T05:52:45.682Z,12.00
2018-10-21T05:53:45.671Z,16.00
2018-10-21T05:54:45.670Z,20.00
2018-10-21T05:55:45.654Z,16.00
2018-10-21T05:56:45.659Z,24.00
2018-10-21T05:57:45.692Z,28.00
2018-10-21T05:58:45.612Z,28.00
2018-10-21T05:59:45.599Z,32.00
2018-10-21T06:00:45.593Z,36.00
2018-10-21T06:01:45.583Z,40.00
2018-10-21T06:02:45.658Z,44.00
2018-10-21T06:03:45.559Z,52.00
2018-10-21T06:04:45.547Z,56.00
2018-10-21T06:05:45.543Z,64.00
2018-10-21T06:06:45.524Z,68.00
2018-10-21T06:07:45.538Z,72.00
2018-10-21T06:08:45.497Z,80.00
2018-10-21T06:09:45.494Z,88.00
2018-10-21T06:10:45.477Z,96.00
2018-10-21T06:11:45.472Z,96.00
2018-10-21T06:12:45.484Z,108.00
2018-10-21T06:13:45.457Z,116.00
2018-10-21T06:14:45.438Z,120.00
2018-10-21T06:15:45.444Z,128.00
2018-10-21T06:16:45.421Z,136.00
2018-10-21T06:17:45.409Z,140.00
2018-10-21T06:18:45.430Z,152.00
2018-10-21T06:19:45.383Z,160.00
2018-10-21T06:20:45.471Z,168.00
2018-10-21T06:21:45.365Z,176.00
2018-10-21T06:22:45.354Z,188.00
2018-10-21T06:23:45.528Z,196.00
2018-10-21T06:24:45.336Z,204.00
2018-10-21T06:25:45.321Z,212.00
2018-10-21T06:26:45.305Z,220.00
2018-10-21T06:27:45.361Z,224.00
2018-10-21T06:28:45.284Z,236.00
2018-10-21T06:29:45.301Z,248.00
2018-10-21T06:30:45.273Z,252.00
2018-10-21T06:31:45.256Z,264.00
2018-10-21T06:32:45.244Z,272.00
2018-10-21T06:33:45.293Z,280.00
2018-10-21T06:34:45.260Z,288.00
2018-10-21T06:35:45.212Z,296.00
2018-10-21T06:36:45.273Z,308.00
2018-10-21T06:37:45.238Z,312.00
2018-10-21T06:38:45.177Z,324.00
2018-10-21T06:39:45.174Z,332.00
2018-10-21T06:40:45.183Z,336.00
2018-10-21T06:41:45.146Z,344.00
2018-10-21T06:42:45.135Z,348.00
2018-10-21T06:43:45.133Z,360.00
2018-10-21T06:44:45.108Z,368.00
2018-10-21T06:45:45.168Z,376.00
2018-10-21T06:46:45.114Z,380.00
2018-10-21T06:47:45.082Z,388.00
2018-10-21T06:48:45.069Z,392.00
2018-10-21T06:49:45.056Z,400.00
2018-10-21T06:50:45.046Z,404.00
2018-10-21T06:51:45.059Z,412.00
2018-10-21T06:52:45.024Z,416.00
2018-10-21T06:53:45.015Z,420.00
2018-10-21T06:54:45.004Z,428.00
2018-10-21T06:55:44.991Z,436.00
2018-10-21T06:56:45.196Z,444.00
2018-10-21T06:57:45.039Z,448.00
2018-10-21T06:58:45.828Z,452.00
2018-10-21T06:59:44.948Z,460.00
2018-10-21T07:00:44.941Z,464.00
2018-10-21T07:01:44.934Z,472.00
2018-10-21T07:02:44.943Z,476.00
2018-10-21T07:03:44.901Z,480.00
2018-10-21T07:04:45.019Z,488.00
2018-10-21T07:05:44.890Z,492.00
2018-10-21T07:06:44.870Z,496.00
2018-10-21T07:07:44.904Z,496.00
2018-10-21T07:08:44.854Z,504.00
2018-10-21T07:09:44.839Z,508.00
2018-10-21T07:10:44.831Z,512.00
2018-10-21T07:11:44.824Z,520.00
2018-10-21T07:12:44.811Z,524.00
2018-10-21T07:13:44.823Z,528.00
2018-10-21T07:14:44.784Z,536.00
2018-10-21T07:15:44.797Z,536.00
2018-10-21T07:16:44.803Z,540.00
2018-10-21T07:17:44.750Z,544.00
2018-10-21T07:18:44.766Z,548.00
2018-10-21T07:19:44.731Z,548.00
2018-10-21T07:20:44.724Z,556.00
2018-10-21T07:21:44.710Z,556.00
2018-10-21T07:22:44.698Z,560.00
2018-10-21T07:23:44.725Z,564.00
2018-10-21T07:24:44.677Z,564.00
2018-10-21T07:25:44.672Z,572.00
2018-10-21T07:26:44.657Z,576.00
2018-10-21T07:27:44.661Z,580.00
2018-10-21T07:28:44.629Z,584.00
2018-10-21T07:29:44.648Z,588.00
2018-10-21T07:30:44.606Z,592.00
2018-10-21T07:31:44.598Z,596.00
2018-10-21T07:32:44.586Z,600.00
2018-10-21T07:33:44.583Z,604.00
2018-10-21T07:34:44.602Z,608.00
2018-10-21T07:35:44.560Z,608.00
2018-10-21T07:36:44.557Z,616.00
2018-10-21T07:37:44.528Z,616.00
2018-10-21T07:38:44.518Z,620.00
2018-10-21T07:39:44.512Z,624.00
2018-10-21T07:40:44.539Z,628.00
2018-10-21T07:41:44.496Z,628.00
2018-10-21T07:42:44.478Z,640.00
2018-10-21T07:43:44.460Z,640.00
2018-10-21T07:44:44.451Z,644.00
2018-10-21T07:45:44.440Z,644.00
2018-10-21T07:46:44.478Z,652.00
2018-10-21T07:47:44.419Z,656.00
2018-10-21T07:48:44.412Z,656.00
2018-10-21T07:49:44.416Z,656.00
2018-10-21T07:50:44.396Z,660.00
2018-10-21T07:51:44.382Z,660.00
2018-10-21T07:52:44.400Z,664.00
2018-10-21T07:53:44.357Z,668.00
2018-10-21T07:54:44.382Z,672.00
2018-10-21T07:55:44.446Z,672.00
2018-10-21T07:56:44.329Z,672.00
2018-10-21T07:57:44.345Z,672.00
2018-10-21T07:58:44.306Z,676.00
2018-10-21T07:59:44.299Z,680.00
2018-10-21T08:00:44.305Z,680.00
2018-10-21T08:01:44.270Z,688.00
2018-10-21T08:02:44.298Z,688.00
2018-10-21T08:03:44.244Z,688.00
2018-10-21T08:04:44.236Z,688.00
2018-10-21T08:05:44.228Z,688.00
2018-10-21T08:06:44.212Z,692.00
2018-10-21T08:07:44.206Z,696.00
2018-10-21T08:08:44.360Z,704.00
2018-10-21T08:09:44.195Z,704.00
2018-10-21T08:10:44.166Z,700.00
2018-10-21T08:11:44.168Z,704.00
2018-10-21T08:12:44.151Z,712.00
2018-10-21T08:13:44.223Z,712.00
2018-10-21T08:14:44.278Z,712.00
2018-10-21T08:15:44.130Z,716.00
2018-10-21T08:16:44.100Z,712.00
2018-10-21T08:17:44.091Z,716.00
2018-10-21T08:18:44.103Z,720.00
2018-10-21T08:19:44.067Z,728.00
2018-10-21T08:20:44.146Z,728.00
2018-10-21T08:21:44.146Z,732.00
2018-10-21T08:22:44.047Z,736.00
2018-10-21T08:23:44.056Z,740.00
2018-10-21T08:24:44.017Z,740.00
2018-10-21T08:25:44.002Z,740.00
2018-10-21T08:26:43.993Z,744.00
2018-10-21T08:27:43.981Z,748.00
2018-10-21T08:28:44.056Z,752.00
2018-10-21T08:29:43.997Z,752.00
2018-10-21T08:30:43.945Z,756.00
2018-10-21T08:31:43.932Z,760.00
2018-10-21T08:32:43.922Z,760.00
2018-10-21T08:33:43.910Z,764.00
2018-10-21T08:34:43.959Z,764.00
2018-10-21T08:35:43.897Z,772.00
2018-10-21T08:36:43.883Z,776.00
2018-10-21T08:37:43.873Z,780.00
2018-10-21T08:38:43.863Z,780.00
2018-10-21T08:39:43.848Z,776.00
2018-10-21T08:40:43.882Z,780.00
2018-10-21T08:41:43.835Z,788.00
2018-10-21T08:42:43.822Z,792.00
2018-10-21T08:43:43.811Z,792.00
2018-10-21T08:44:43.800Z,800.00
2018-10-21T08:45:43.788Z,804.00
2018-10-21T08:46:43.904Z,804.00
2018-10-21T08:47:43.828Z,804.00
2018-10-21T08:48:43.750Z,816.00
2018-10-21T08:49:43.791Z,812.00
2018-10-21T08:50:43.726Z,820.00
2018-10-21T08:51:43.759Z,816.00
2018-10-21T08:52:43.707Z,820.00
2018-10-21T08:53:43.697Z,824.00
2018-10-21T08:54:43.688Z,828.00
2018-10-21T08:55:43.715Z,832.00
2018-10-21T08:56:43.660Z,836.00
2018-10-21T08:57:43.672Z,840.00
2018-10-21T08:58:43.645Z,844.00
2018-10-21T08:59:43.658Z,848.00
2018-10-21T09:00:43.720Z,848.00
2018-10-21T09:01:43.686Z,852.00
2018-10-21T09:02:43.839Z,860.00
2018-10-21T09:03:43.697Z,860.00
2018-10-21T09:05:05.422Z,860.00
2018-10-21T09:05:43.564Z,864.00
2018-10-21T09:06:43.554Z,872.00
2018-10-21T09:07:43.575Z,880.00
2018-10-21T09:08:43.541Z,888.00
2018-10-21T09:09:43.575Z,888.00
2018-10-21T09:10:43.643Z,892.00
2018-10-21T09:11:43.493Z,896.00
2018-10-21T09:12:43.489Z,904.00
2018-10-21T09:13:43.497Z,904.00
2018-10-21T09:14:43.462Z,912.00
2018-10-21T09:15:43.450Z,912.00
2018-10-21T09:16:43.555Z,920.00
2018-10-21T09:17:43.427Z,924.00
2018-10-21T09:18:43.455Z,920.00
2018-10-21T09:19:43.407Z,924.00
2018-10-21T09:20:43.394Z,948.00
2018-10-21T09:21:43.394Z,944.00
2018-10-21T09:22:43.374Z,948.00
2018-10-21T09:23:43.446Z,948.00
2018-10-21T09:24:43.376Z,952.00
2018-10-21T09:25:43.336Z,956.00
2018-10-21T09:26:43.328Z,964.00
2018-10-21T09:27:43.323Z,964.00
2018-10-21T09:28:43.353Z,972.00
2018-10-21T09:29:43.297Z,976.00
2018-10-21T09:30:43.345Z,980.00
2018-10-21T09:31:43.279Z,980.00
2018-10-21T09:32:43.265Z,988.00
2018-10-21T09:33:43.269Z,988.00
2018-10-21T09:34:43.267Z,992.00
2018-10-21T09:35:43.231Z,996.00
2018-10-21T09:36:43.220Z,1004.00
2018-10-21T09:37:43.219Z,1000.00
2018-10-21T09:38:43.201Z,1012.00
2018-10-21T09:39:43.221Z,1008.00
2018-10-21T09:40:43.177Z,1012.00
2018-10-21T09:41:43.163Z,1012.00
2018-10-21T09:42:43.160Z,1028.00
2018-10-21T09:43:43.143Z,1028.00
2018-10-21T09:44:43.155Z,1032.00
2018-10-21T09:45:43.149Z,1036.00
2018-10-21T09:46:43.113Z,1036.00
2018-10-21T09:47:43.100Z,1032.00
2018-10-21T09:48:43.094Z,1044.00
2018-10-21T09:49:43.110Z,1048.00
2018-10-21T09:50:43.108Z,1064.00
2018-10-21T09:51:43.047Z,1064.00
2018-10-21T09:52:43.049Z,1068.00
2018-10-21T09:53:43.026Z,1076.00
2018-10-21T09:54:43.019Z,1084.00
2018-10-21T09:55:43.036Z,1088.00
2018-10-21T09:56:43.000Z,1088.00
2018-10-21T09:57:42.992Z,1088.00
2018-10-21T09:58:43.013Z,1092.00
2018-10-21T09:59:42.963Z,1096.00
2018-10-21T10:00:42.982Z,1100.00
2018-10-21T10:01:42.941Z,1104.00
2018-10-21T10:02:42.934Z,1108.00
2018-10-21T10:03:42.986Z,1112.00
2018-10-21T10:04:42.930Z,1112.00
2018-10-21T10:05:42.960Z,1116.00
2018-10-21T10:06:42.898Z,1120.00
2018-10-21T10:07:42.875Z,1124.00
2018-10-21T10:08:42.866Z,1128.00
2018-10-21T10:09:42.851Z,1136.00
2018-10-21T10:10:42.877Z,1140.00
2018-10-21T10:11:42.835Z,1144.00
2018-10-21T10:12:42.820Z,1148.00
2018-10-21T10:13:42.813Z,1152.00
2018-10-21T10:14:42.797Z,1156.00
2018-10-21T10:15:42.801Z,1160.00
2018-10-21T10:16:42.810Z,1156.00
2018-10-21T10:17:42.840Z,1156.00
2018-10-21T10:18:42.750Z,1156.00
2018-10-21T10:19:42.743Z,1160.00
2018-10-21T10:20:42.730Z,1164.00
2018-10-21T10:21:42.766Z,1164.00
2018-10-21T10:22:42.713Z,1172.00
2018-10-21T10:23:42.730Z,1184.00
2018-10-21T10:24:42.684Z,1192.00
2018-10-21T10:25:42.676Z,1192.00
2018-10-21T10:26:42.669Z,1196.00
2018-10-21T10:27:42.716Z,1200.00
2018-10-21T10:28:42.650Z,1196.00
2018-10-21T10:29:42.676Z,1196.00
2018-10-21T10:30:42.625Z,1204.00
2018-10-21T10:31:42.607Z,1200.00
2018-10-21T10:32:42.637Z,1208.00
2018-10-21T10:33:42.612Z,1204.00
2018-10-21T10:34:42.578Z,1212.00
2018-10-21T10:35:42.561Z,1220.00
2018-10-21T10:36:42.558Z,1220.00
2018-10-21T10:37:42.541Z,1220.00
2018-10-21T10:38:42.553Z,1228.00
2018-10-21T10:39:42.531Z,1224.00
2018-10-21T10:40:42.520Z,1228.00
2018-10-21T10:41:42.581Z,1228.00
2018-10-21T10:42:42.484Z,1232.00
2018-10-21T10:43:42.506Z,1236.00
2018-10-21T10:44:42.470Z,1244.00
2018-10-21T10:45:42.492Z,1244.00
2018-10-21T10:46:42.444Z,1252.00
2018-10-21T10:47:42.435Z,1240.00
2018-10-21T10:48:42.461Z,1240.00
2018-10-21T10:49:42.420Z,1244.00
2018-10-21T10:50:42.396Z,1248.00
2018-10-21T10:51:42.390Z,1248.00
2018-10-21T10:52:42.377Z,1248.00
2018-10-21T10:53:42.367Z,1256.00
2018-10-21T10:54:42.405Z,1256.00
2018-10-21T10:55:42.337Z,1256.00
2018-10-21T10:56:42.334Z,1252.00
2018-10-21T10:57:42.324Z,1256.00
2018-10-21T10:58:42.317Z,1264.00
2018-10-21T10:59:42.394Z,1268.00
2018-10-21T11:00:42.333Z,1264.00
2018-10-21T11:01:42.284Z,1260.00
2018-10-21T11:02:42.270Z,1260.00
2018-10-21T11:03:42.262Z,1256.00
2018-10-21T11:04:42.240Z,1260.00
2018-10-21T11:05:42.230Z,1264.00
2018-10-21T11:06:42.305Z,1264.00
2018-10-21T11:07:42.211Z,1268.00
2018-10-21T11:08:42.199Z,1272.00
2018-10-21T11:09:42.204Z,1272.00
2018-10-21T11:10:42.172Z,1276.00
2018-10-21T11:11:42.170Z,1284.00
2018-10-21T11:12:42.182Z,1276.00
2018-10-21T11:13:42.139Z,1292.00
2018-10-21T11:14:42.191Z,1288.00
2018-10-21T11:15:42.122Z,1292.00
2018-10-21T11:16:42.110Z,1300.00
2018-10-21T11:17:42.129Z,1304.00
2018-10-21T11:18:42.099Z,1312.00
2018-10-21T11:19:42.087Z,1328.00
2018-10-21T11:20:42.063Z,1328.00
2018-10-21T11:21:42.073Z,1328.00
2018-10-21T11:22:42.135Z,1348.00
2018-10-21T11:23:42.035Z,1336.00
2018-10-21T11:24:42.022Z,1332.00
2018-10-21T11:25:42.065Z,1340.00
2018-10-21T11:26:42.010Z,1348.00
2018-10-21T11:27:42.033Z,1336.00
2018-10-21T11:28:41.974Z,1332.00
2018-10-21T11:29:41.980Z,1328.00
2018-10-21T11:30:41.963Z,1328.00
2018-10-21T11:31:41.951Z,1328.00
2018-10-21T11:32:41.932Z,1336.00
2018-10-21T11:33:41.957Z,1348.00
2018-10-21T11:34:41.906Z,1336.00
2018-10-21T11:35:41.901Z,1348.00
2018-10-21T11:36:41.980Z,1352.00
2018-10-21T11:37:41.957Z,1368.00
2018-10-21T11:38:41.878Z,1372.00
2018-10-21T11:39:41.859Z,1360.00
2018-10-21T11:40:41.851Z,1348.00
2018-10-21T11:41:41.845Z,1340.00
2018-10-21T11:42:41.824Z,1340.00
2018-10-21T11:43:41.850Z,1328.00
2018-10-21T11:44:41.810Z,1304.00
2018-10-21T11:45:41.935Z,1300.00
2018-10-21T11:46:41.778Z,1308.00
2018-10-21T11:47:41.775Z,1316.00
2018-10-21T11:48:41.761Z,1332.00
2018-10-21T11:49:41.780Z,1328.00
2018-10-21T11:50:41.732Z,1332.00
2018-10-21T11:51:41.723Z,1344.00
2018-10-21T11:52:41.790Z,1360.00
2018-10-21T11:53:41.702Z,1400.00
2018-10-21T11:54:41.701Z,1432.00
2018-10-21T11:55:41.705Z,1420.00
2018-10-21T11:56:41.664Z,1380.00
2018-10-21T11:57:41.657Z,1360.00
2018-10-21T11:58:41.654Z,1376.00
2018-10-21T11:59:41.635Z,1420.00
2018-10-21T12:00:41.647Z,1556.00
2018-10-21T12:01:41.625Z,1788.00
2018-10-21T12:02:41.603Z,2860.00
2018-10-21T12:03:41.594Z,1416.00
2018-10-21T12:04:41.579Z,28064.00
2018-10-21T12:05:41.629Z,8976.00
2018-10-21T12:06:41.563Z,2104.00
2018-10-21T12:07:41.568Z,1984.00
2018-10-21T12:08:41.639Z,1920.00
2018-10-21T12:09:41.528Z,1992.00
2018-10-21T12:10:41.534Z,2044.00
2018-10-21T12:11:41.661Z,2268.00
2018-10-21T12:12:41.794Z,2628.00
2018-10-21T12:13:41.478Z,3824.00
2018-10-21T12:14:41.465Z,20256.00
2018-10-21T12:15:42.032Z,35232.00
2018-10-21T12:16:41.448Z,33376.00
2018-10-21T12:17:41.436Z,32224.00
2018-10-21T12:18:41.424Z,32224.00
2018-10-21T12:19:41.458Z,32384.00
2018-10-21T12:20:41.410Z,30208.00
2018-10-21T12:21:41.443Z,27040.00
2018-10-21T12:22:41.386Z,18560.00
2018-10-21T12:23:41.367Z,18944.00
2018-10-21T12:24:41.636Z,15648.00
2018-10-21T12:25:41.467Z,14336.00
2018-10-21T12:26:41.856Z,12504.00
2018-10-21T12:27:41.387Z,13656.00
2018-10-21T12:28:41.400Z,16960.00
2018-10-21T12:29:41.378Z,15080.00
2018-10-21T12:30:41.390Z,15712.00
2018-10-21T12:31:41.365Z,10640.00
2018-10-21T12:32:41.501Z,10300.00
2018-10-21T12:33:41.262Z,13264.00
2018-10-21T12:34:41.244Z,19072.00
2018-10-21T12:35:41.239Z,19072.00
2018-10-21T12:36:41.233Z,17440.00
2018-10-21T12:37:41.303Z,12328.00
2018-10-21T12:38:41.199Z,13640.00
2018-10-21T12:39:41.191Z,13404.00
2018-10-21T12:40:41.194Z,11220.00
2018-10-21T12:41:41.175Z,7492.00
2018-10-21T12:42:41.196Z,9032.00
2018-10-21T12:43:41.156Z,9612.00
2018-10-21T12:44:41.141Z,6392.00